VLPS

Pakse International Airport

Pakse, Lao People’s Democratic Republic
TAF VLPS 221100Z 2212/2312 36008KT 7000 FEW020 FEW200
Issued Valid From Valid To
Jan-22 @ 11:00 UTC
(6 hours ago)
Jan-22 @ 12:00 UTC
(5 hours ago)
Jan-23 @ 12:00 UTC
(in 19 hours)
Jan-22 @ 12:00 to Jan-23 @ 12:00
TAF VLPS 221100Z 2212/2312 36008KT 7000 FEW020 FEW200
Wind Visibility Clouds
360° at 8 knots 7,001 meters
  • Few at 2,000' AGL
  • Few at 20,000' AGL
TAF VLPS 221100Z 2212/2312 36008KT 7000 FEW020 FEW200
Issued Jan-22 @ 11:00 UTC
(6 hours ago)
Valid From Jan-22 @ 12:00 UTC
(5 hours ago)
Valid To Jan-23 @ 12:00 UTC
(in 19 hours)
Jan-22 @ 12:00 - Jan-23 @ 12:00
Wind Visibility
360° at 8 knots 7,001 meters
Clouds
  • Few at 2,000' AGL
  • Few at 20,000' AGL